Time;durP1;ratioP1;P1;durP2;ratioP2;P2;SDS_P1;SDS_P2;PMS_P1;PMS_P2;Temp;Humidity;BMP_temperature;BMP_pressure;BME280_temperature;BME280_humidity;BME280_pressure;Samples;Min_cycle;Max_cycle;Signal;HPM_P1;HPM_P2
2021/12/06 00:01:53;;;;;;;7.90;5.00;;;;;;;2.97;100.00;98486.91;5087809;28;20216;-82
2021/12/06 00:04:25;;;;;;;8.40;4.97;;;;;;;3.02;100.00;98489.34;5087750;28;20228;-83
2021/12/06 00:06:56;;;;;;;8.20;4.47;;;;;;;2.97;100.00;98484.28;5088821;28;20256;-82
2021/12/06 00:09:26;;;;;;;9.17;5.20;;;;;;;2.95;100.00;98486.13;5088673;28;20211;-83
2021/12/06 00:11:57;;;;;;;8.87;5.50;;;;;;;3.02;100.00;98486.72;5088540;28;20196;-83
2021/12/06 00:14:28;;;;;;;9.37;5.30;;;;;;;3.00;100.00;98485.94;5102348;28;20263;-82
2021/12/06 00:17:01;;;;;;;10.80;5.73;;;;;;;2.99;100.00;98497.31;5113614;27;20199;-83
2021/12/06 00:19:29;;;;;;;10.37;5.87;;;;;;;2.98;100.00;98501.69;5107644;28;20198;-82
2021/12/06 00:22:02;;;;;;;12.03;6.33;;;;;;;3.01;100.00;98492.88;5105119;28;20195;-82
2021/12/06 00:24:30;;;;;;;8.73;5.77;;;;;;;2.97;100.00;98501.75;5114392;27;20213;-82
2021/12/06 00:26:59;;;;;;;8.27;5.53;;;;;;;2.86;100.00;98497.84;5112005;27;20191;-82
2021/12/06 00:29:27;;;;;;;8.50;6.23;;;;;;;2.93;100.00;98503.66;5102512;28;20213;-82
2021/12/06 00:31:55;;;;;;;10.30;6.43;;;;;;;2.95;100.00;98503.59;5113022;28;20199;-82
2021/12/06 00:34:33;;;;;;;13.73;6.90;;;;;;;2.98;100.00;98509.53;5119577;28;20262;-82
2021/12/06 00:37:18;;;;;;;8.67;6.80;;;;;;;2.99;100.00;98502.53;5108965;28;20197;-83
2021/12/06 00:39:47;;;;;;;10.17;6.80;;;;;;;2.93;100.00;98514.13;5107814;28;20195;-82
2021/12/06 00:42:16;;;;;;;9.37;6.20;;;;;;;2.89;100.00;98520.38;5106731;27;20203;-83
2021/12/06 00:44:45;;;;;;;8.33;6.60;;;;;;;2.94;100.00;98528.06;5109848;28;20213;-83
2021/12/06 00:47:13;;;;;;;11.13;6.90;;;;;;;2.91;100.00;98531.66;5109769;28;20232;-82
2021/12/06 00:49:45;;;;;;;8.97;7.00;;;;;;;2.88;100.00;98535.22;5109627;28;20211;-82
2021/12/06 00:52:13;;;;;;;9.80;6.90;;;;;;;2.88;100.00;98531.78;5115623;27;20251;-82
2021/12/06 00:54:42;;;;;;;8.47;6.27;;;;;;;2.87;100.00;98540.53;5115153;27;20210;-82
2021/12/06 00:57:12;;;;;;;10.90;6.93;;;;;;;2.87;100.00;98537.91;5116021;27;20242;-82
2021/12/06 00:59:41;;;;;;;6.77;5.73;;;;;;;2.87;100.00;98541.38;5108106;28;20250;-82
2021/12/06 01:02:11;;;;;;;10.03;6.63;;;;;;;2.85;100.00;98548.44;5104047;28;20231;-83
2021/12/06 01:04:44;;;;;;;12.33;7.37;;;;;;;2.81;100.00;98554.75;5104260;28;20278;-83
2021/12/06 01:07:13;;;;;;;10.17;6.67;;;;;;;2.82;100.00;98559.06;5091233;28;20195;-82
2021/12/06 01:09:42;;;;;;;10.73;6.00;;;;;;;2.79;100.00;98553.94;5086688;28;20239;-83
2021/12/06 01:12:12;;;;;;;9.43;6.23;;;;;;;2.76;100.00;98569.75;5089084;28;20196;-82
2021/12/06 01:14:40;;;;;;;7.70;4.83;;;;;;;2.75;100.00;98568.06;5089436;28;20169;-83
2021/12/06 01:17:09;;;;;;;6.20;4.67;;;;;;;2.70;100.00;98570.03;5091899;28;20177;-82
2021/12/06 01:19:37;;;;;;;6.43;4.87;;;;;;;2.73;100.00;98567.28;5092055;28;20184;-82
2021/12/06 01:22:19;;;;;;;7.83;4.70;;;;;;;2.75;100.00;98568.06;5089157;28;20187;-82
2021/12/06 01:24:54;;;;;;;6.43;4.50;;;;;;;2.61;100.00;98570.41;5091078;28;20168;-82
2021/12/06 01:28:01;;;;;;;6.63;5.17;;;;;;;2.63;100.00;98562.50;5087352;28;20195;-83
2021/12/06 01:30:47;;;;;;;5.73;4.60;;;;;;;2.63;100.00;98572.97;5091576;28;20252;-82
2021/12/06 01:41:36;;;;;;;6.50;4.90;;;;;;;2.62;100.00;98582.56;5091300;28;20172;-82
2021/12/06 01:44:11;;;;;;;7.23;5.40;;;;;;;2.65;100.00;98586.81;5091967;28;20191;-83
2021/12/06 01:46:46;;;;;;;5.67;4.70;;;;;;;2.61;100.00;98593.09;5088540;28;20243;-82
2021/12/06 01:49:17;;;;;;;8.33;5.57;;;;;;;2.63;100.00;98602.56;5091643;28;20211;-83
2021/12/06 01:51:46;;;;;;;8.20;5.53;;;;;;;2.65;100.00;98600.72;5085858;28;20176;-82
2021/12/06 01:54:18;;;;;;;11.30;5.27;;;;;;;2.65;100.00;98613.81;5088018;28;20184;-82
2021/12/06 01:56:48;;;;;;;7.33;5.73;;;;;;;2.61;100.00;98607.00;5091463;28;20172;-83
2021/12/06 01:59:16;;;;;;;7.70;5.73;;;;;;;2.62;100.00;98606.09;5085821;28;20179;-82
2021/12/06 02:01:45;;;;;;;9.90;5.87;;;;;;;2.65;100.00;98598.13;5076575;27;20276;-82
2021/12/06 02:04:14;;;;;;;8.40;5.30;;;;;;;2.71;100.00;98597.88;5070971;27;20241;-82
2021/12/06 02:06:42;;;;;;;13.53;6.57;;;;;;;2.53;100.00;98590.78;5080222;27;20204;-82
2021/12/06 02:09:15;;;;;;;9.43;5.97;;;;;;;2.42;100.00;98600.81;5079688;27;20219;-83
2021/12/06 02:11:46;;;;;;;9.83;6.23;;;;;;;2.42;100.00;98595.59;5079422;27;20192;-82
2021/12/06 02:14:26;;;;;;;10.33;6.93;;;;;;;2.41;100.00;98602.56;5083086;27;20253;-82
2021/12/06 02:17:06;;;;;;;7.80;6.00;;;;;;;2.38;100.00;98600.06;5076497;27;20212;-83
2021/12/06 02:19:40;;;;;;;11.57;6.60;;;;;;;2.40;100.00;98600.00;5080112;27;20229;-83
2021/12/06 02:22:11;;;;;;;10.33;6.93;;;;;;;2.35;100.00;98599.34;5078150;27;20204;-83
2021/12/06 02:24:40;;;;;;;9.83;7.10;;;;;;;2.31;100.00;98603.84;5074324;27;20199;-83
2021/12/06 02:27:11;;;;;;;10.70;6.53;;;;;;;2.40;100.00;98606.09;5070733;28;20189;-83
2021/12/06 02:29:41;;;;;;;9.77;7.03;;;;;;;2.44;100.00;98604.22;5079078;27;20223;-82
2021/12/06 02:32:12;;;;;;;10.17;7.30;;;;;;;2.37;100.00;98610.59;5071120;28;20248;-82
2021/12/06 02:34:42;;;;;;;10.10;7.40;;;;;;;2.45;100.00;98613.75;5081620;27;20196;-83
2021/12/06 02:37:13;;;;;;;10.57;6.97;;;;;;;2.35;100.00;98618.50;5081490;27;20662;-83
2021/12/06 02:39:41;;;;;;;11.23;7.33;;;;;;;2.34;100.00;98614.19;5075710;27;20200;-83
2021/12/06 02:42:14;;;;;;;10.13;7.27;;;;;;;2.30;100.00;98615.19;5073755;27;20173;-82
2021/12/06 02:44:43;;;;;;;11.00;6.73;;;;;;;2.42;100.00;98627.81;5070511;28;20279;-83
2021/12/06 02:47:11;;;;;;;9.37;7.17;;;;;;;2.40;100.00;98619.16;5076657;27;20177;-82
2021/12/06 02:49:40;;;;;;;9.90;6.93;;;;;;;2.34;100.00;98629.00;5082019;27;20228;-83
2021/12/06 02:52:11;;;;;;;10.17;7.00;;;;;;;2.32;100.00;98628.19;5072876;28;20199;-82
2021/12/06 02:54:41;;;;;;;10.03;7.20;;;;;;;2.22;100.00;98623.38;5083028;27;20188;-82
2021/12/06 02:57:21;;;;;;;10.40;7.53;;;;;;;2.18;100.00;98631.38;5084170;27;20201;-82
2021/12/06 02:59:49;;;;;;;11.57;7.53;;;;;;;2.20;100.00;98638.22;5083994;27;20192;-82
2021/12/06 03:02:20;;;;;;;10.93;7.40;;;;;;;2.11;100.00;98633.34;5080537;27;20243;-83
2021/12/06 03:04:50;;;;;;;9.80;7.30;;;;;;;2.19;100.00;98633.06;5080309;27;20229;-82
2021/12/06 03:07:21;;;;;;;10.43;7.77;;;;;;;2.21;100.00;98637.31;5084406;27;20201;-82
2021/12/06 03:09:54;;;;;;;11.53;7.53;;;;;;;2.15;100.00;98644.56;5072696;28;20227;-83
2021/12/06 03:12:24;;;;;;;11.00;7.27;;;;;;;2.16;100.00;98641.03;5082608;27;20229;-83
2021/12/06 03:14:55;;;;;;;10.37;7.43;;;;;;;2.10;100.00;98642.09;5079621;27;20183;-83
2021/12/06 03:17:27;;;;;;;9.43;7.30;;;;;;;2.12;100.00;98653.34;5079127;27;20205;-83
2021/12/06 03:19:55;;;;;;;9.97;7.27;;;;;;;2.06;100.00;98652.72;5081315;27;20193;-83
2021/12/06 03:22:24;;;;;;;11.93;6.93;;;;;;;2.05;100.00;98658.88;5073289;28;20245;-82
2021/12/06 03:24:54;;;;;;;11.10;7.30;;;;;;;2.05;100.00;98654.50;5072117;28;20197;-83
2021/12/06 03:27:22;;;;;;;12.03;7.40;;;;;;;1.88;100.00;98662.94;5084332;27;20199;-83
2021/12/06 03:29:51;;;;;;;13.40;7.77;;;;;;;1.89;100.00;98662.03;5073280;28;20219;-83
2021/12/06 03:32:22;;;;;;;15.10;6.90;;;;;;;1.87;100.00;98676.06;5073169;28;20643;-83
2021/12/06 03:34:51;;;;;;;10.70;6.97;;;;;;;1.81;100.00;98677.13;5084160;27;20211;-82
2021/12/06 03:37:19;;;;;;;10.20;7.43;;;;;;;1.82;100.00;98675.38;5081198;27;20193;-83
2021/12/06 03:39:49;;;;;;;8.80;6.57;;;;;;;1.83;100.00;98685.75;5071972;28;20200;-83
2021/12/06 03:42:25;;;;;;;11.87;6.77;;;;;;;1.75;100.00;98684.34;5082041;27;20271;-82
2021/12/06 03:44:53;;;;;;;10.73;6.60;;;;;;;1.82;100.00;98680.59;5079963;27;20195;-83
2021/12/06 03:47:25;;;;;;;9.67;6.93;;;;;;;1.83;100.00;98695.34;5080133;27;20368;-83
2021/12/06 03:50:10;;;;;;;8.80;6.70;;;;;;;1.90;100.00;98695.06;5073191;28;20192;-83
2021/12/06 03:52:59;;;;;;;8.97;6.83;;;;;;;1.93;100.00;98705.44;5073231;28;20204;-83
2021/12/06 03:55:59;;;;;;;9.00;6.93;;;;;;;2.01;100.00;98707.72;5081947;27;20202;-82
2021/12/06 03:58:44;;;;;;;9.83;7.20;;;;;;;1.99;100.00;98709.56;5073300;27;20204;-82
2021/12/06 04:01:12;;;;;;;10.87;7.20;;;;;;;2.01;100.00;98703.34;5081782;27;20723;-83
2021/12/06 04:03:42;;;;;;;9.60;6.97;;;;;;;1.96;100.00;98707.06;5079525;27;20200;-82
2021/12/06 04:06:12;;;;;;;10.40;6.90;;;;;;;1.97;100.00;98727.91;5082412;27;20204;-83
2021/12/06 04:08:40;;;;;;;12.73;7.27;;;;;;;1.90;100.00;98715.97;5081471;27;20196;-82
2021/12/06 04:11:09;;;;;;;8.73;6.90;;;;;;;1.92;100.00;98715.91;5073145;28;20708;-82
2021/12/06 04:13:38;;;;;;;9.67;7.10;;;;;;;1.91;100.00;98715.06;5078966;27;20278;-82
2021/12/06 04:16:08;;;;;;;9.53;6.93;;;;;;;1.95;100.00;98721.88;5078486;27;20192;-83
2021/12/06 04:18:37;;;;;;;10.07;7.50;;;;;;;2.01;100.00;98728.63;5083733;27;20199;-83
2021/12/06 04:21:06;;;;;;;10.67;7.63;;;;;;;1.96;100.00;98727.97;5083136;27;20188;-83
2021/12/06 04:23:35;;;;;;;8.50;7.20;;;;;;;1.92;100.00;98726.34;5080100;27;20180;-83
2021/12/06 04:26:04;;;;;;;10.53;7.33;;;;;;;1.94;100.00;98721.94;5083211;27;20195;-83
2021/12/06 04:28:35;;;;;;;9.77;6.87;;;;;;;1.81;100.00;98718.91;5078875;27;20237;-83
2021/12/06 04:31:04;;;;;;;12.27;7.97;;;;;;;1.89;100.00;98727.31;5072323;28;20220;-83
2021/12/06 04:33:34;;;;;;;12.83;7.80;;;;;;;1.87;100.00;98730.91;5084450;27;20204;-83
2021/12/06 04:36:05;;;;;;;11.07;6.93;;;;;;;1.91;100.00;98733.31;5080518;27;20196;-83
2021/12/06 04:38:33;;;;;;;11.67;7.37;;;;;;;1.91;100.00;98738.56;5078836;27;20280;-83
2021/12/06 04:41:03;;;;;;;9.60;7.57;;;;;;;1.90;100.00;98736.00;5079988;27;20209;-83
2021/12/06 04:43:32;;;;;;;12.03;7.47;;;;;;;1.92;100.00;98734.19;5072224;28;20192;-83
2021/12/06 04:46:01;;;;;;;13.27;7.53;;;;;;;1.96;100.00;98741.00;5082379;27;20199;-83
2021/12/06 04:48:29;;;;;;;11.80;7.63;;;;;;;2.04;100.00;98738.97;5080511;27;20205;-83
2021/12/06 04:51:00;;;;;;;12.10;7.70;;;;;;;2.08;100.00;98743.16;5078799;27;20205;-83
2021/12/06 04:53:36;;;;;;;14.60;9.23;;;;;;;2.09;100.00;98747.50;5081620;27;20192;-83
2021/12/06 04:56:10;;;;;;;10.13;7.77;;;;;;;2.09;100.00;98747.50;5082953;27;20200;-83
2021/12/06 04:58:45;;;;;;;11.77;8.13;;;;;;;2.07;100.00;98753.69;5072246;28;20189;-83
2021/12/06 05:01:24;;;;;;;12.60;8.40;;;;;;;2.14;100.00;98753.41;5081541;27;20216;-83
2021/12/06 05:03:52;;;;;;;11.23;8.30;;;;;;;2.14;100.00;98752.56;5071809;27;20199;-83
2021/12/06 05:06:27;;;;;;;11.77;8.73;;;;;;;2.14;100.00;98758.63;5078392;27;20189;-83
2021/12/06 05:09:00;;;;;;;13.20;9.23;;;;;;;2.15;100.00;98752.50;5074178;27;20203;-83
2021/12/06 05:11:30;;;;;;;14.37;8.77;;;;;;;2.14;100.00;98752.56;5071824;28;20213;-83
2021/12/06 05:14:02;;;;;;;13.03;8.67;;;;;;;2.17;100.00;98757.66;5080171;27;20197;-83
2021/12/06 05:16:33;;;;;;;12.57;9.30;;;;;;;2.21;100.00;98761.84;5078274;27;20197;-82
2021/12/06 05:19:02;;;;;;;13.17;9.43;;;;;;;2.21;100.00;98769.69;5082288;27;20205;-83
2021/12/06 05:21:32;;;;;;;13.80;9.50;;;;;;;2.16;100.00;98767.25;5080124;27;20661;-83
2021/12/06 05:24:03;;;;;;;12.03;8.50;;;;;;;2.20;100.00;98775.81;5076138;27;20207;-83
2021/12/06 05:26:32;;;;;;;14.33;9.10;;;;;;;2.17;100.00;98781.19;5082861;27;20188;-83
2021/12/06 05:29:02;;;;;;;14.30;9.33;;;;;;;2.13;100.00;98790.88;5079979;27;20237;-83
2021/12/06 05:31:35;;;;;;;13.27;8.97;;;;;;;2.22;100.00;98805.34;5083260;27;20220;-83
2021/12/06 05:34:09;;;;;;;14.17;9.43;;;;;;;2.13;100.00;98796.13;5078835;27;20173;-83
2021/12/06 05:36:40;;;;;;;13.67;9.50;;;;;;;2.15;100.00;98803.88;5079192;27;20194;-83
2021/12/06 05:39:10;;;;;;;13.77;9.23;;;;;;;2.17;100.00;98809.91;5107565;28;20199;-83
2021/12/06 05:41:42;;;;;;;12.17;9.03;;;;;;;2.05;100.00;98805.97;5109300;28;20281;-83
2021/12/06 05:44:10;;;;;;;13.03;9.17;;;;;;;2.12;100.00;98822.25;5110485;28;20187;-83
2021/12/06 05:46:38;;;;;;;14.23;9.73;;;;;;;2.16;100.00;98816.91;5109744;28;20199;-83
2021/12/06 05:49:07;;;;;;;15.20;10.03;;;;;;;2.19;100.00;98826.38;5101158;28;20198;-83
2021/12/06 05:51:35;;;;;;;14.53;10.07;;;;;;;2.23;100.00;98825.38;5108853;28;20256;-83
2021/12/06 05:54:07;;;;;;;14.07;9.97;;;;;;;2.30;100.00;98822.47;5075895;28;20187;-83
2021/12/06 05:56:35;;;;;;;13.77;10.13;;;;;;;2.18;100.00;98825.53;5100493;28;20229;-83
2021/12/06 05:59:04;;;;;;;14.43;9.70;;;;;;;2.20;100.00;98831.53;5080247;27;20675;-83
2021/12/06 06:01:33;;;;;;;13.77;10.00;;;;;;;2.25;100.00;98837.47;5072085;27;20280;-83
2021/12/06 06:04:02;;;;;;;14.43;10.30;;;;;;;2.24;100.00;98843.59;5071182;27;20224;-82
2021/12/06 06:06:34;;;;;;;12.83;9.20;;;;;;;2.25;100.00;98849.69;5109127;28;20198;-83
2021/12/06 06:09:07;;;;;;;13.47;10.03;;;;;;;2.12;100.00;98851.00;5108781;28;20187;-83
2021/12/06 06:11:36;;;;;;;14.90;10.43;;;;;;;2.14;100.00;98857.03;5114019;28;20207;-83
2021/12/06 06:14:06;;;;;;;13.87;10.20;;;;;;;2.21;100.00;98848.91;5117853;28;20187;-83
2021/12/06 06:16:46;;;;;;;15.67;10.00;;;;;;;2.14;100.00;98857.91;5111801;28;20602;-83
2021/12/06 06:19:15;;;;;;;13.67;10.07;;;;;;;2.09;100.00;98858.94;5103702;28;20207;-83
2021/12/06 06:21:43;;;;;;;13.40;10.23;;;;;;;2.13;100.00;98868.41;5104145;28;20727;-83
2021/12/06 06:24:14;;;;;;;13.33;9.93;;;;;;;2.12;100.00;98870.13;5098574;28;20189;-83
2021/12/06 06:26:45;;;;;;;14.87;9.97;;;;;;;2.14;100.00;98875.34;5076740;28;20659;-83
2021/12/06 06:29:13;;;;;;;15.43;9.83;;;;;;;2.24;100.00;98871.50;5070816;28;20200;-83
2021/12/06 06:31:42;;;;;;;14.53;10.23;;;;;;;2.11;100.00;98875.41;5076680;27;20224;-83
2021/12/06 06:34:13;;;;;;;15.73;10.37;;;;;;;2.15;100.00;98859.59;5077812;27;20184;-83
2021/12/06 06:36:41;;;;;;;17.60;10.40;;;;;;;2.07;100.00;98868.59;5070787;28;20191;-83
2021/12/06 06:39:10;;;;;;;15.30;10.57;;;;;;;2.08;100.00;98879.00;5079724;27;20196;-82
2021/12/06 06:41:39;;;;;;;17.33;10.80;;;;;;;2.00;100.00;98873.16;5076934;27;20188;-82
2021/12/06 06:44:09;;;;;;;15.20;10.93;;;;;;;2.08;100.00;98883.38;5071137;28;20196;-82
2021/12/06 06:46:38;;;;;;;13.83;10.73;;;;;;;2.10;100.00;98892.84;5084369;27;20185;-82
2021/12/06 06:49:07;;;;;;;15.60;10.60;;;;;;;2.12;100.00;98888.41;5077489;27;20188;-82
2021/12/06 06:51:36;;;;;;;15.73;10.27;;;;;;;2.13;100.00;98884.06;5076220;28;20261;-82
2021/12/06 06:54:05;;;;;;;16.40;10.40;;;;;;;2.12;100.00;98900.63;5102003;28;20195;-82
2021/12/06 06:56:33;;;;;;;14.53;10.30;;;;;;;2.15;100.00;98904.00;5080705;27;20196;-82
2021/12/06 06:59:02;;;;;;;14.40;10.50;;;;;;;2.25;100.00;98904.53;5070556;28;20193;-83
2021/12/06 07:01:32;;;;;;;16.57;10.80;;;;;;;2.18;100.00;98901.28;5080452;27;20220;-83
2021/12/06 07:04:10;;;;;;;17.13;10.10;;;;;;;2.09;100.00;98905.97;5074451;27;20219;-82
2021/12/06 07:06:38;;;;;;;15.37;10.70;;;;;;;1.96;100.00;98906.38;5079645;27;20239;-83
2021/12/06 07:09:07;;;;;;;17.47;10.13;;;;;;;2.06;100.00;98916.53;5078808;27;20197;-82
2021/12/06 07:11:35;;;;;;;14.60;10.43;;;;;;;2.10;100.00;98915.50;5078037;27;20196;-82
2021/12/06 07:14:05;;;;;;;12.90;9.70;;;;;;;2.10;100.00;98923.34;5082366;27;20236;-83
2021/12/06 07:16:35;;;;;;;14.90;10.57;;;;;;;2.11;100.00;98920.66;5080502;27;20189;-82
2021/12/06 07:19:04;;;;;;;15.07;10.27;;;;;;;2.11;100.00;98918.06;5075560;27;20169;-83
2021/12/06 07:21:46;;;;;;;16.10;10.90;;;;;;;2.14;100.00;98920.59;5071892;27;20742;-82
2021/12/06 07:24:14;;;;;;;14.70;10.73;;;;;;;2.17;100.00;98925.69;5069587;28;20193;-82
2021/12/06 07:26:42;;;;;;;15.87;10.37;;;;;;;2.22;100.00;98929.03;5079494;27;20178;-82
2021/12/06 07:29:11;;;;;;;15.43;10.90;;;;;;;2.17;100.00;98930.94;5079394;27;20173;-83
2021/12/06 07:31:41;;;;;;;12.80;10.13;;;;;;;2.13;100.00;98936.31;5077280;27;20204;-82
2021/12/06 07:34:10;;;;;;;14.07;9.43;;;;;;;2.14;100.00;98936.25;5070318;27;20205;-82
2021/12/06 07:36:38;;;;;;;15.03;9.53;;;;;;;2.20;100.00;98943.03;5075025;27;20177;-83
2021/12/06 07:39:07;;;;;;;14.87;10.47;;;;;;;2.16;100.00;98942.28;5082008;27;20271;-83
2021/12/06 07:41:36;;;;;;;15.00;10.07;;;;;;;2.15;100.00;98947.56;5082397;27;20195;-83
2021/12/06 07:44:05;;;;;;;13.37;9.67;;;;;;;2.19;100.00;98939.56;5081896;27;20178;-83
2021/12/06 07:46:33;;;;;;;14.00;10.17;;;;;;;2.17;100.00;98943.13;5074968;27;20199;-82
2021/12/06 07:49:05;;;;;;;15.10;10.07;;;;;;;2.21;100.00;98944.72;5079852;27;20229;-83
2021/12/06 07:51:35;;;;;;;15.33;10.00;;;;;;;2.22;100.00;98949.03;5073175;28;20225;-83
2021/12/06 07:54:07;;;;;;;16.63;10.77;;;;;;;2.28;100.00;98949.69;5077878;27;20223;-82
2021/12/06 07:56:37;;;;;;;15.30;9.90;;;;;;;2.24;100.00;98947.25;5078548;27;20188;-83
2021/12/06 07:59:06;;;;;;;13.77;10.23;;;;;;;2.29;100.00;98958.41;5079336;27;20226;-83
2021/12/06 08:01:35;;;;;;;13.83;9.60;;;;;;;2.30;100.00;98960.94;5081173;27;20220;-83
2021/12/06 08:04:06;;;;;;;13.80;9.40;;;;;;;2.32;100.00;98963.53;5075657;27;20222;-82
2021/12/06 08:06:37;;;;;;;12.77;8.80;;;;;;;2.31;100.00;98967.03;5078802;27;20200;-83
2021/12/06 08:09:08;;;;;;;12.60;9.70;;;;;;;2.30;100.00;98962.72;5079822;27;20611;-82
2021/12/06 08:11:37;;;;;;;13.73;9.90;;;;;;;2.34;100.00;98961.72;5082362;27;20201;-82
2021/12/06 08:14:11;;;;;;;12.63;9.40;;;;;;;2.42;100.00;98954.47;5072973;28;20207;-83
2021/12/06 08:16:43;;;;;;;13.13;9.20;;;;;;;2.43;100.00;98950.94;5083852;27;20255;-82
2021/12/06 08:19:14;;;;;;;12.43;9.03;;;;;;;2.46;100.00;98955.22;5072720;28;20207;-83
2021/12/06 08:21:42;;;;;;;12.00;9.37;;;;;;;2.45;100.00;98959.59;5135054;27;20235;-83
2021/12/06 08:24:11;;;;;;;14.87;9.67;;;;;;;2.46;100.00;98948.22;5134152;27;20195;-83
2021/12/06 08:26:42;;;;;;;11.97;9.47;;;;;;;2.48;100.00;98946.41;5135074;27;20197;-83
2021/12/06 08:29:15;;;;;;;15.77;10.00;;;;;;;2.49;100.00;98942.03;5134862;27;20672;-83
2021/12/06 08:31:47;;;;;;;14.03;10.20;;;;;;;2.56;100.00;98944.38;5129988;27;20190;-83
2021/12/06 08:34:17;;;;;;;13.40;9.97;;;;;;;2.55;100.00;98939.22;5132227;27;20676;-82
2021/12/06 08:36:45;;;;;;;14.73;10.17;;;;;;;2.57;100.00;98938.25;5134972;27;20190;-82
2021/12/06 08:39:20;;;;;;;13.67;10.03;;;;;;;2.66;100.00;98934.44;5121025;27;20212;-82
2021/12/06 08:41:49;;;;;;;12.10;9.50;;;;;;;2.70;100.00;98943.03;5079319;27;20203;-83
2021/12/06 08:44:20;;;;;;;12.00;9.60;;;;;;;2.66;100.00;98944.06;5082898;27;20260;-83
2021/12/06 08:46:50;;;;;;;13.83;10.00;;;;;;;2.75;100.00;98938.50;5083029;27;20192;-83
2021/12/06 08:49:20;;;;;;;14.57;9.90;;;;;;;2.72;100.00;98936.88;5080857;27;20179;-83
2021/12/06 08:51:50;;;;;;;14.83;10.40;;;;;;;2.72;100.00;98949.09;5076442;27;20173;-82
2021/12/06 08:54:19;;;;;;;16.10;10.90;;;;;;;2.76;100.00;98938.44;5077756;27;20288;-83
2021/12/06 08:56:49;;;;;;;14.27;10.03;;;;;;;2.92;100.00;98943.97;5072223;28;20192;-82
2021/12/06 08:59:17;;;;;;;15.33;10.37;;;;;;;2.83;100.00;98937.31;5082493;27;20203;-82
2021/12/06 09:01:46;;;;;;;13.83;10.37;;;;;;;2.96;100.00;98937.72;5079433;27;20303;-83
2021/12/06 09:04:39;;;;;;;13.30;9.73;;;;;;;3.04;100.00;98932.22;5072273;28;20193;-82
2021/12/06 09:07:12;;;;;;;14.03;10.63;;;;;;;3.01;100.00;98927.94;5076118;27;20197;-83
2021/12/06 09:09:46;;;;;;;12.57;10.50;;;;;;;3.01;100.00;98930.56;5081224;27;20208;-83
2021/12/06 09:12:18;;;;;;;14.17;10.30;;;;;;;2.97;100.00;98930.72;5079743;27;20197;-83
2021/12/06 09:14:47;;;;;;;14.03;10.17;;;;;;;3.07;100.00;98930.31;5070364;27;20217;-82
2021/12/06 09:17:16;;;;;;;13.33;9.97;;;;;;;3.16;100.00;98932.59;5080107;27;20229;-83
2021/12/06 09:19:46;;;;;;;27.13;19.40;;;;;;;3.22;100.00;98928.91;5079850;27;20196;-83
2021/12/06 09:22:15;;;;;;;32.30;21.67;;;;;;;3.24;100.00;98928.84;5080057;27;20200;-82
2021/12/06 09:24:44;;;;;;;22.30;15.90;;;;;;;3.42;100.00;98921.13;5070387;28;20195;-81
2021/12/06 09:27:14;;;;;;;18.07;13.30;;;;;;;3.60;100.00;98923.94;5082948;27;20192;-83
2021/12/06 09:29:45;;;;;;;18.77;13.37;;;;;;;3.58;100.00;98929.25;5071804;27;20204;-82
2021/12/06 09:32:16;;;;;;;16.40;11.77;;;;;;;3.64;100.00;98928.13;5081331;27;20185;-84
2021/12/06 09:34:47;;;;;;;39.43;22.20;;;;;;;3.60;100.00;98932.66;5087270;28;20204;-82
2021/12/06 09:37:19;;;;;;;38.43;21.20;;;;;;;3.82;100.00;98932.66;5104269;27;20210;-82
2021/12/06 09:40:09;;;;;;;18.70;14.17;;;;;;;3.77;100.00;98929.38;5092079;27;20198;-83
2021/12/06 09:42:40;;;;;;;17.07;12.80;;;;;;;3.78;100.00;98927.59;5082894;27;20203;-83
2021/12/06 09:45:12;;;;;;;17.03;12.80;;;;;;;3.99;100.00;98929.34;5077553;27;20197;-82
2021/12/06 09:47:40;;;;;;;15.43;10.07;;;;;;;4.15;100.00;98930.44;5080467;27;20208;-82
2021/12/06 09:50:10;;;;;;;13.37;9.90;;;;;;;4.30;100.00;98935.00;5077513;27;20196;-82
2021/12/06 09:52:39;;;;;;;15.43;10.37;;;;;;;4.41;100.00;98934.56;5099493;28;20188;-82
2021/12/06 09:55:08;;;;;;;14.90;10.57;;;;;;;4.78;100.00;98933.81;5082087;27;20224;-83
2021/12/06 09:57:36;;;;;;;11.70;9.60;;;;;;;5.08;100.00;98933.38;5083198;27;20200;-82
2021/12/06 10:00:07;;;;;;;12.33;8.97;;;;;;;5.10;100.00;98931.53;5077665;27;20185;-82
2021/12/06 10:02:35;;;;;;;13.00;9.50;;;;;;;5.16;100.00;98928.63;5078834;27;20691;-82
2021/12/06 10:05:05;;;;;;;12.27;9.40;;;;;;;5.29;100.00;98928.91;5077235;27;20221;-83
2021/12/06 10:07:38;;;;;;;13.23;9.10;;;;;;;5.41;100.00;98921.31;5072084;28;20173;-83
2021/12/06 10:10:11;;;;;;;12.70;9.13;;;;;;;5.36;100.00;98920.69;5161288;27;20185;-82
2021/12/06 10:12:41;;;;;;;12.00;8.27;;;;;;;5.55;100.00;98919.81;5105330;27;20192;-82
2021/12/06 10:15:11;;;;;;;11.90;8.63;;;;;;;5.74;100.00;98918.00;5092842;27;20243;-83
2021/12/06 10:17:41;;;;;;;9.90;7.73;;;;;;;5.93;100.00;98910.97;5092690;28;20184;-83
2021/12/06 10:20:10;;;;;;;11.33;7.63;;;;;;;5.81;100.00;98911.53;5086205;28;20195;-83
2021/12/06 10:22:42;;;;;;;10.80;8.30;;;;;;;5.68;100.00;98908.63;5088021;28;20192;-83
2021/12/06 10:25:12;;;;;;;12.80;8.30;;;;;;;5.67;100.00;98893.78;5089624;28;20227;-83
2021/12/06 10:28:04;;;;;;;11.40;8.20;;;;;;;6.03;100.00;98898.22;5092690;28;20195;-83
2021/12/06 10:30:34;;;;;;;11.87;7.97;;;;;;;6.20;100.00;98897.38;5085340;28;20195;-83
2021/12/06 10:33:06;;;;;;;9.63;7.90;;;;;;;6.35;100.00;98893.09;5088628;28;20192;-83
2021/12/06 10:35:35;;;;;;;11.63;8.57;;;;;;;6.43;100.00;98885.69;5088385;28;20298;-83
2021/12/06 10:38:05;;;;;;;11.20;8.47;;;;;;;6.30;100.00;98890.72;5084146;28;20246;-83
2021/12/06 10:40:42;;;;;;;10.57;7.33;;;;;;;6.25;100.00;98890.09;5089287;28;20174;-83
2021/12/06 10:43:13;;;;;;;10.53;7.90;;;;;;;6.05;100.00;98891.09;5070229;28;20188;-83
2021/12/06 10:45:47;;;;;;;8.83;7.37;;;;;;;5.96;100.00;98892.41;5071426;27;20289;-83
2021/12/06 10:48:18;;;;;;;11.77;7.90;;;;;;;6.01;100.00;98892.19;5070559;28;20188;-83
2021/12/06 10:50:56;;;;;;;10.77;8.20;;;;;;;6.20;100.00;98886.88;5070468;28;20196;-83
2021/12/06 10:53:31;;;;;;;9.13;7.63;;;;;;;6.23;100.00;98890.19;5075162;27;20200;-83
2021/12/06 10:56:01;;;;;;;9.97;7.17;;;;;;;6.32;100.00;98900.22;5077021;27;20184;-83
2021/12/06 10:58:31;;;;;;;9.43;7.70;;;;;;;6.62;100.00;98889.06;5069180;27;20196;-83
2021/12/06 11:01:07;;;;;;;11.30;7.97;;;;;;;6.88;100.00;98895.59;5084377;27;20248;-83
2021/12/06 11:03:40;;;;;;;10.77;7.57;;;;;;;6.95;100.00;98883.81;5081901;27;20213;-83
2021/12/06 11:06:12;;;;;;;10.90;7.87;;;;;;;6.96;100.00;98887.28;5076231;27;20204;-83
2021/12/06 11:08:43;;;;;;;8.93;7.97;;;;;;;6.78;100.00;98873.31;5078237;27;20200;-83
2021/12/06 11:11:14;;;;;;;11.80;8.43;;;;;;;6.56;100.00;98874.47;5070519;28;20180;-83
2021/12/06 11:13:46;;;;;;;10.83;8.67;;;;;;;6.13;100.00;98875.78;5073726;28;20208;-83
2021/12/06 11:16:17;;;;;;;15.33;9.43;;;;;;;6.19;100.00;98878.13;5073454;28;20249;-83
2021/12/06 11:18:52;;;;;;;13.13;8.37;;;;;;;6.10;100.00;98868.06;5080863;27;20264;-83
2021/12/06 11:21:29;;;;;;;11.37;8.50;;;;;;;6.16;100.00;98873.00;5083594;27;20173;-83
2021/12/06 11:24:18;;;;;;;11.70;8.37;;;;;;;6.20;100.00;98868.47;5081507;27;20632;-83
2021/12/06 11:26:53;;;;;;;11.87;8.00;;;;;;;6.10;100.00;98854.06;5072338;27;20201;-83
2021/12/06 11:29:24;;;;;;;13.53;9.37;;;;;;;6.00;100.00;98854.53;5084920;27;20196;-83
2021/12/06 11:32:00;;;;;;;13.23;9.70;;;;;;;6.65;100.00;98856.47;5084489;27;20181;-82
2021/12/06 11:34:36;;;;;;;17.10;10.70;;;;;;;7.17;100.00;98855.38;5079051;27;20215;-83
2021/12/06 11:37:13;;;;;;;13.67;10.70;;;;;;;6.30;100.00;98860.03;5073659;28;20173;-83
2021/12/06 11:39:44;;;;;;;12.87;9.97;;;;;;;7.13;100.00;98858.22;5080102;27;20199;-83
2021/12/06 11:42:15;;;;;;;13.47;10.13;;;;;;;7.49;100.00;98849.22;5073956;27;20231;-83
2021/12/06 11:44:43;;;;;;;13.53;9.70;;;;;;;7.97;100.00;98851.69;5083926;27;20199;-83
2021/12/06 11:47:15;;;;;;;12.40;9.40;;;;;;;7.73;100.00;98853.13;5072930;28;20207;-83
2021/12/06 11:49:47;;;;;;;13.27;9.50;;;;;;;8.36;100.00;98857.38;5073182;28;20200;-82
2021/12/06 11:52:19;;;;;;;12.47;9.40;;;;;;;8.04;100.00;98863.59;5080306;27;20222;-83